createdAt,value
2023-03-06T00:01:09.891Z,51.60
2023-03-06T00:03:37.995Z,51.90
2023-03-06T00:06:06.556Z,52.10
2023-03-06T00:08:34.659Z,52.00
2023-03-06T00:11:02.724Z,51.80
2023-03-06T00:13:32.248Z,51.90
2023-03-06T00:16:01.826Z,51.90
2023-03-06T00:18:29.954Z,51.90
2023-03-06T00:20:58.153Z,52.10
2023-03-06T00:23:27.507Z,52.10
2023-03-06T00:25:55.703Z,51.90
2023-03-06T00:28:23.731Z,51.90
2023-03-06T00:30:51.763Z,51.90
2023-03-06T00:33:21.014Z,51.90
2023-03-06T00:35:49.222Z,51.90
2023-03-06T00:38:17.156Z,52.00
2023-03-06T00:40:45.420Z,52.00
2023-03-06T00:43:13.791Z,52.00
2023-03-06T00:45:43.251Z,52.10
2023-03-06T00:48:11.149Z,52.10
2023-03-06T00:50:40.619Z,51.90
2023-03-06T00:53:08.539Z,51.90
2023-03-06T00:55:36.653Z,51.80
2023-03-06T00:58:04.627Z,51.70
2023-03-06T01:00:33.094Z,51.70
2023-03-06T01:03:01.000Z,51.70
2023-03-06T01:05:29.085Z,51.70
2023-03-06T01:07:58.335Z,51.70
2023-03-06T01:10:28.323Z,51.80
2023-03-06T01:12:56.498Z,51.80
2023-03-06T01:15:27.130Z,51.80
2023-03-06T01:17:55.602Z,51.80
2023-03-06T01:20:24.069Z,52.30
2023-03-06T01:22:54.466Z,51.80
2023-03-06T01:25:25.058Z,51.90
2023-03-06T01:27:53.259Z,51.90
2023-03-06T01:30:21.720Z,51.90
2023-03-06T01:32:49.641Z,52.00
2023-03-06T01:35:18.295Z,52.00
2023-03-06T01:37:46.163Z,52.00
2023-03-06T01:40:15.024Z,52.00
2023-03-06T01:42:46.358Z,52.10
2023-03-06T01:45:51.438Z,52.10
2023-03-06T01:48:22.162Z,52.30
2023-03-06T01:50:52.082Z,52.10
2023-03-06T01:53:21.356Z,52.10
2023-03-06T01:55:49.634Z,52.10
2023-03-06T01:58:20.086Z,52.00
2023-03-06T02:00:48.507Z,52.00
2023-03-06T02:03:22.493Z,52.00
2023-03-06T02:05:50.683Z,52.10
2023-03-06T02:08:20.484Z,52.00
2023-03-06T02:10:59.131Z,52.10
2023-03-06T02:13:28.713Z,52.10
2023-03-06T02:15:57.345Z,52.10
2023-03-06T02:18:25.688Z,52.00
2023-03-06T02:20:56.038Z,52.00
2023-03-06T02:23:32.623Z,51.90
2023-03-06T02:26:03.467Z,52.50
2023-03-06T02:28:31.564Z,52.00
2023-03-06T02:31:00.352Z,51.90
2023-03-06T02:33:30.394Z,52.00
2023-03-06T02:36:01.859Z,52.10
2023-03-06T02:38:35.349Z,51.90
2023-03-06T02:41:08.018Z,51.90
2023-03-06T02:43:39.410Z,52.00
2023-03-06T02:46:08.581Z,52.00
2023-03-06T02:48:36.620Z,52.00
2023-03-06T02:51:04.790Z,52.00
2023-03-06T02:53:33.642Z,52.00
2023-03-06T02:56:01.653Z,52.10
2023-03-06T02:58:31.408Z,52.50
2023-03-06T03:01:00.266Z,52.00
2023-03-06T03:03:28.208Z,52.00
2023-03-06T03:05:56.623Z,52.10
2023-03-06T03:08:29.955Z,52.10
2023-03-06T03:11:02.450Z,52.10
2023-03-06T03:13:38.819Z,52.20
2023-03-06T03:16:10.163Z,52.20
2023-03-06T03:18:38.443Z,52.10
2023-03-06T03:21:08.791Z,52.20
2023-03-06T03:23:36.943Z,52.20
2023-03-06T03:26:09.178Z,52.20
2023-03-06T03:28:41.719Z,52.30
2023-03-06T03:31:12.193Z,52.20
2023-03-06T03:33:41.012Z,52.20
2023-03-06T03:36:10.236Z,52.40
2023-03-06T03:38:42.455Z,52.20
2023-03-06T03:41:11.229Z,52.20
2023-03-06T03:43:39.276Z,52.20
2023-03-06T03:46:08.884Z,52.30
2023-03-06T03:48:37.787Z,52.30
2023-03-06T03:51:08.152Z,52.30
2023-03-06T03:53:40.316Z,52.30
2023-03-06T03:56:10.210Z,52.30
2023-03-06T03:58:45.720Z,52.40
2023-03-06T04:01:15.144Z,52.30
2023-03-06T04:03:43.284Z,52.30
2023-03-06T04:06:12.834Z,52.30
2023-03-06T04:08:40.755Z,52.30
2023-03-06T04:11:08.861Z,52.50
2023-03-06T04:13:37.330Z,52.40
2023-03-06T04:16:07.398Z,52.30
2023-03-06T04:18:39.382Z,52.30
2023-03-06T04:21:08.776Z,52.30
2023-03-06T04:23:37.825Z,52.30
2023-03-06T04:26:07.136Z,52.30
2023-03-06T04:28:35.312Z,52.30
2023-03-06T04:31:03.368Z,52.60
2023-03-06T04:33:33.065Z,52.30
2023-03-06T04:36:02.366Z,52.20
2023-03-06T04:38:33.157Z,52.20
2023-03-06T04:41:04.044Z,52.20
2023-03-06T04:43:32.248Z,52.30
2023-03-06T04:46:00.078Z,52.20
2023-03-06T04:48:28.127Z,52.30
2023-03-06T04:50:55.979Z,52.30
2023-03-06T04:53:25.581Z,52.30
2023-03-06T04:55:53.500Z,52.20
2023-03-06T04:58:21.854Z,52.20
2023-03-06T05:00:49.798Z,52.20
2023-03-06T05:03:17.918Z,52.30
2023-03-06T05:05:45.809Z,52.40
2023-03-06T05:08:15.884Z,52.40
2023-03-06T05:10:45.981Z,52.50
2023-03-06T05:13:14.206Z,52.50
2023-03-06T05:15:42.172Z,52.60
2023-03-06T05:18:10.307Z,52.50
2023-03-06T05:20:38.210Z,52.50
2023-03-06T05:23:06.345Z,52.50
2023-03-06T05:25:34.226Z,52.60
2023-03-06T05:28:03.754Z,52.60
2023-03-06T05:30:31.751Z,52.60
2023-03-06T05:32:59.613Z,52.60
2023-03-06T05:35:28.040Z,52.60
2023-03-06T05:37:56.372Z,52.60
2023-03-06T05:40:24.440Z,53.20
2023-03-06T05:42:52.533Z,52.60
2023-03-06T05:45:21.948Z,52.60
2023-03-06T05:47:49.825Z,52.60
2023-03-06T05:50:18.209Z,52.70
2023-03-06T05:52:46.081Z,52.70
2023-03-06T05:55:14.254Z,52.60
2023-03-06T05:57:42.138Z,52.60
2023-03-06T06:00:11.701Z,53.00
2023-03-06T06:02:46.316Z,52.70
2023-03-06T06:05:14.882Z,52.60
2023-03-06T06:07:43.060Z,52.70
2023-03-06T06:10:12.924Z,52.70
2023-03-06T06:12:41.030Z,52.70
2023-03-06T06:15:09.886Z,52.80
2023-03-06T06:17:37.986Z,52.80
2023-03-06T06:20:08.737Z,52.90
2023-03-06T06:22:38.242Z,52.90
2023-03-06T06:25:07.442Z,52.90
2023-03-06T06:27:35.699Z,53.00
2023-03-06T06:30:04.212Z,53.00
2023-03-06T06:32:32.184Z,53.00
2023-03-06T06:35:00.510Z,53.00
2023-03-06T06:37:29.730Z,53.00
2023-03-06T06:39:57.856Z,53.00
2023-03-06T06:42:34.171Z,53.50
2023-03-06T06:45:05.870Z,53.10
2023-03-06T06:47:34.193Z,53.00
2023-03-06T06:50:02.540Z,53.00
2023-03-06T06:52:31.779Z,53.10
2023-03-06T06:54:59.773Z,53.20
2023-03-06T06:57:27.778Z,53.00
2023-03-06T06:59:55.875Z,53.10
2023-03-06T07:02:24.388Z,53.30
2023-03-06T07:05:03.463Z,53.10
2023-03-06T07:07:35.996Z,53.20
2023-03-06T07:10:06.603Z,53.00
2023-03-06T07:12:35.092Z,53.00
2023-03-06T07:15:03.864Z,53.00
2023-03-06T07:17:31.832Z,52.90
2023-03-06T07:20:00.583Z,52.90
2023-03-06T07:22:31.967Z,52.90
2023-03-06T07:25:06.312Z,53.00
2023-03-06T07:27:34.292Z,53.00
2023-03-06T07:30:02.375Z,52.90
2023-03-06T07:32:30.459Z,52.90
2023-03-06T07:35:17.360Z,52.90
2023-03-06T07:37:46.606Z,53.00
2023-03-06T07:40:15.815Z,52.90
2023-03-06T07:42:43.820Z,52.80
2023-03-06T07:45:14.663Z,52.90
2023-03-06T07:47:42.553Z,52.80
2023-03-06T07:50:11.952Z,52.90
2023-03-06T07:52:39.954Z,52.90
2023-03-06T07:55:09.661Z,52.90
2023-03-06T07:57:39.806Z,52.80
2023-03-06T08:00:12.979Z,52.90
2023-03-06T08:02:41.282Z,52.90
2023-03-06T08:05:10.879Z,52.90
2023-03-06T08:07:38.783Z,52.90
2023-03-06T08:10:07.558Z,53.00
2023-03-06T08:12:35.497Z,53.20
2023-03-06T08:15:05.656Z,53.20
2023-03-06T08:17:33.551Z,53.20
2023-03-06T08:20:01.479Z,53.20
2023-03-06T08:22:29.637Z,53.10
2023-03-06T08:24:59.356Z,53.00
2023-03-06T08:27:27.556Z,53.00
2023-03-06T08:29:55.942Z,53.00
2023-03-06T08:32:25.540Z,53.00
2023-03-06T08:34:53.555Z,52.90
2023-03-06T08:37:21.597Z,53.00
2023-03-06T08:39:49.597Z,53.30
2023-03-06T08:42:17.727Z,53.40
2023-03-06T08:44:45.822Z,53.10
2023-03-06T08:47:13.914Z,53.10
2023-03-06T08:49:43.395Z,53.10
2023-03-06T08:52:11.424Z,53.10
2023-03-06T08:54:39.560Z,53.10
2023-03-06T08:57:09.252Z,53.10
2023-03-06T08:59:37.673Z,53.20
2023-03-06T09:02:07.698Z,53.40
2023-03-06T09:04:36.108Z,53.70
2023-03-06T09:07:05.743Z,53.50
2023-03-06T09:09:33.730Z,53.40
2023-03-06T09:12:01.856Z,53.40
2023-03-06T09:14:29.871Z,53.20
2023-03-06T09:16:58.300Z,53.10
2023-03-06T09:19:26.320Z,53.10
2023-03-06T09:21:54.426Z,53.00
2023-03-06T09:24:23.748Z,52.90
2023-03-06T09:26:51.925Z,53.10
2023-03-06T09:29:19.942Z,53.00
2023-03-06T09:31:48.191Z,53.00
2023-03-06T09:34:16.293Z,53.00
2023-03-06T09:36:56.000Z,53.00
2023-03-06T09:39:27.729Z,53.10
2023-03-06T09:41:57.452Z,53.20
2023-03-06T09:44:27.632Z,53.10
2023-03-06T09:47:26.393Z,53.20
2023-03-06T09:50:08.660Z,53.40
2023-03-06T09:52:46.164Z,53.40
2023-03-06T09:55:18.733Z,53.30
2023-03-06T09:57:55.358Z,53.10
2023-03-06T10:00:28.231Z,52.90
2023-03-06T10:03:04.671Z,53.00
2023-03-06T10:05:39.893Z,52.80
2023-03-06T10:08:20.316Z,52.70
2023-03-06T10:10:58.538Z,52.50
2023-03-06T10:13:31.746Z,52.30
2023-03-06T10:16:07.314Z,52.30
2023-03-06T10:18:38.380Z,52.10
2023-03-06T10:21:19.691Z,52.10
2023-03-06T10:23:54.151Z,52.10
2023-03-06T10:26:28.070Z,52.00
2023-03-06T10:29:14.688Z,52.00
2023-03-06T10:31:49.281Z,52.00
2023-03-06T10:34:23.388Z,52.00
2023-03-06T10:36:51.963Z,52.10
2023-03-06T10:39:21.945Z,52.00
2023-03-06T10:41:51.862Z,51.80
2023-03-06T10:44:24.752Z,51.70
2023-03-06T10:46:55.032Z,51.60
2023-03-06T10:49:32.231Z,51.60
2023-03-06T10:52:03.843Z,51.60
2023-03-06T10:54:34.379Z,51.60
2023-03-06T10:57:25.985Z,51.60
2023-03-06T10:59:55.970Z,51.50
2023-03-06T11:02:30.668Z,51.60
2023-03-06T11:05:00.436Z,51.60
2023-03-06T11:07:29.668Z,51.60
2023-03-06T11:10:16.704Z,51.60
2023-03-06T11:12:58.483Z,51.60
2023-03-06T11:15:27.873Z,51.70
2023-03-06T11:17:59.803Z,51.80
2023-03-06T11:20:48.522Z,51.90
2023-03-06T11:23:19.922Z,52.00
2023-03-06T11:25:53.380Z,51.90
2023-03-06T11:28:27.326Z,51.50
2023-03-06T11:31:00.647Z,51.90
2023-03-06T11:33:31.738Z,52.20
2023-03-06T11:36:06.717Z,52.20
2023-03-06T11:38:43.315Z,52.00
2023-03-06T11:41:20.127Z,51.80
2023-03-06T11:43:56.532Z,51.50
2023-03-06T11:46:29.345Z,51.10
2023-03-06T11:49:03.394Z,51.10
2023-03-06T11:51:35.788Z,50.70
2023-03-06T11:54:04.267Z,50.70
2023-03-06T11:56:39.023Z,50.80
2023-03-06T11:59:24.972Z,50.80
2023-03-06T12:02:00.358Z,50.80
2023-03-06T12:05:01.864Z,50.60
2023-03-06T12:07:33.287Z,50.00
2023-03-06T12:10:14.386Z,50.30
2023-03-06T12:13:12.472Z,50.30
2023-03-06T12:16:13.476Z,50.10
2023-03-06T12:18:53.256Z,50.10
2023-03-06T12:21:32.501Z,50.10
2023-03-06T12:24:15.697Z,50.20
2023-03-06T12:26:57.958Z,50.30
2023-03-06T12:30:01.084Z,49.30
2023-03-06T12:32:41.742Z,49.80
2023-03-06T12:35:42.214Z,49.90
2023-03-06T12:38:24.452Z,49.90
2023-03-06T12:41:06.897Z,50.00
2023-03-06T12:44:10.401Z,49.50
2023-03-06T12:46:43.564Z,49.60
2023-03-06T12:49:31.458Z,49.80
2023-03-06T12:52:03.101Z,49.70
2023-03-06T12:54:35.309Z,49.60
2023-03-06T12:57:04.206Z,49.60
2023-03-06T12:59:48.021Z,49.60
2023-03-06T13:02:43.067Z,49.00
2023-03-06T13:05:40.685Z,49.40
2023-03-06T13:08:25.017Z,48.90
2023-03-06T13:11:22.788Z,49.10
2023-03-06T13:13:50.710Z,49.80
2023-03-06T13:16:28.181Z,50.00
2023-03-06T13:19:03.113Z,50.10
2023-03-06T13:22:08.057Z,49.60
2023-03-06T13:24:38.310Z,49.60
2023-03-06T13:27:09.395Z,49.70
2023-03-06T13:30:06.165Z,49.50
2023-03-06T13:32:36.255Z,49.40
2023-03-06T13:35:47.078Z,49.50
2023-03-06T13:38:33.070Z,49.30
2023-03-06T13:41:26.975Z,49.30
2023-03-06T13:43:56.604Z,49.30
2023-03-06T13:46:27.983Z,49.40
2023-03-06T13:49:14.425Z,49.40
2023-03-06T13:51:47.264Z,49.20
2023-03-06T13:54:29.462Z,49.40
2023-03-06T13:57:30.847Z,49.40
2023-03-06T14:00:38.571Z,49.30
2023-03-06T14:03:29.259Z,49.40
2023-03-06T14:05:58.916Z,49.40
2023-03-06T14:08:29.436Z,49.40
2023-03-06T14:11:03.366Z,49.40
2023-03-06T14:13:45.489Z,49.60
2023-03-06T14:16:20.904Z,49.70
2023-03-06T14:18:50.859Z,49.80
2023-03-06T14:21:31.011Z,50.00
2023-03-06T14:24:00.975Z,50.00
2023-03-06T14:26:34.278Z,50.00
2023-03-06T14:29:04.000Z,50.10
2023-03-06T14:31:34.440Z,50.30
2023-03-06T14:34:05.795Z,50.40
2023-03-06T14:36:37.187Z,50.50
2023-03-06T14:39:11.709Z,50.40
2023-03-06T14:41:41.827Z,50.40
2023-03-06T14:44:19.352Z,50.50
2023-03-06T14:46:49.413Z,50.50
2023-03-06T14:49:19.062Z,50.60
2023-03-06T14:51:48.706Z,50.50
2023-03-06T14:54:20.585Z,50.50
2023-03-06T14:56:54.222Z,50.40
2023-03-06T14:59:26.682Z,50.50
2023-03-06T15:01:59.947Z,50.50
2023-03-06T15:04:32.929Z,50.50
2023-03-06T15:07:01.991Z,50.50
2023-03-06T15:09:32.754Z,50.50
2023-03-06T15:12:04.377Z,50.50
2023-03-06T15:14:35.602Z,50.60
2023-03-06T15:17:22.210Z,50.60
2023-03-06T15:19:52.046Z,50.70
2023-03-06T15:22:30.018Z,50.60
2023-03-06T15:25:20.864Z,50.60
2023-03-06T15:27:52.860Z,50.60
2023-03-06T15:30:26.917Z,50.70
2023-03-06T15:33:11.292Z,50.70
2023-03-06T15:35:40.044Z,50.80
2023-03-06T15:38:25.645Z,50.80
2023-03-06T15:40:58.252Z,50.80
2023-03-06T15:43:38.266Z,50.80
2023-03-06T15:46:07.888Z,50.70
2023-03-06T15:48:36.305Z,50.70
2023-03-06T15:51:05.742Z,50.70
2023-03-06T15:53:33.773Z,50.70
2023-03-06T15:56:03.265Z,50.70
2023-03-06T15:58:35.222Z,50.70
2023-03-06T16:01:04.290Z,50.80
2023-03-06T16:03:32.423Z,50.80
2023-03-06T16:06:00.460Z,50.80
2023-03-06T16:08:28.784Z,50.90
2023-03-06T16:10:57.122Z,50.90
2023-03-06T16:13:28.273Z,51.00
2023-03-06T16:15:57.735Z,51.00
2023-03-06T16:18:25.590Z,51.00
2023-03-06T16:20:53.613Z,51.00
2023-03-06T16:23:21.874Z,51.00
2023-03-06T16:25:50.551Z,51.00
2023-03-06T16:28:18.915Z,51.00
2023-03-06T16:30:46.925Z,51.10
2023-03-06T16:33:16.464Z,51.10
2023-03-06T16:35:46.568Z,51.10
2023-03-06T16:38:15.523Z,51.20
2023-03-06T16:40:43.606Z,51.20
2023-03-06T16:43:13.447Z,51.20
2023-03-06T16:45:43.333Z,51.20
2023-03-06T16:48:17.630Z,51.20
2023-03-06T16:50:46.256Z,51.30
2023-03-06T16:53:15.316Z,51.30
2023-03-06T16:55:43.600Z,51.30
2023-03-06T16:58:12.062Z,51.20
2023-03-06T17:00:40.265Z,51.30
2023-03-06T17:03:08.531Z,51.30
2023-03-06T17:05:39.064Z,51.30
2023-03-06T17:08:07.073Z,51.30
2023-03-06T17:10:35.797Z,51.40
2023-03-06T17:13:03.730Z,51.10
2023-03-06T17:15:31.838Z,51.10
2023-03-06T17:17:59.801Z,51.10
2023-03-06T17:20:28.169Z,51.10
2023-03-06T17:22:57.665Z,51.10
2023-03-06T17:25:25.751Z,51.00
2023-03-06T17:27:53.583Z,51.00
2023-03-06T17:30:21.797Z,51.00
2023-03-06T17:32:49.644Z,51.10
2023-03-06T17:35:17.892Z,51.50
2023-03-06T17:37:45.847Z,51.20
2023-03-06T17:40:16.616Z,51.20
2023-03-06T17:42:44.717Z,51.30
2023-03-06T17:45:13.705Z,51.30
2023-03-06T17:47:41.888Z,51.30
2023-03-06T17:50:11.333Z,51.30
2023-03-06T17:52:39.812Z,51.30
2023-03-06T17:55:08.919Z,51.20
2023-03-06T17:57:38.143Z,51.30
2023-03-06T18:00:08.285Z,51.40
2023-03-06T18:02:40.795Z,51.40
2023-03-06T18:05:10.084Z,51.40
2023-03-06T18:07:38.163Z,51.40
2023-03-06T18:10:06.826Z,51.50
2023-03-06T18:12:34.741Z,51.50
2023-03-06T18:15:04.663Z,51.50
2023-03-06T18:17:32.516Z,51.50
2023-03-06T18:20:00.569Z,51.50
2023-03-06T18:22:28.436Z,51.50
2023-03-06T18:24:56.692Z,51.60
2023-03-06T18:27:24.701Z,51.50
2023-03-06T18:29:52.833Z,51.60
2023-03-06T18:32:22.287Z,51.50
2023-03-06T18:34:50.872Z,51.50
2023-03-06T18:37:19.275Z,51.50
2023-03-06T18:39:47.385Z,51.50
2023-03-06T18:42:15.469Z,51.50
2023-03-06T18:44:43.968Z,51.60
2023-03-06T18:47:12.033Z,51.50
2023-03-06T18:49:44.046Z,51.50
2023-03-06T18:52:13.317Z,51.60
2023-03-06T18:54:41.617Z,51.60
2023-03-06T18:57:11.143Z,51.70
2023-03-06T18:59:40.070Z,51.80
2023-03-06T19:02:08.435Z,51.80
2023-03-06T19:04:37.880Z,51.80
2023-03-06T19:07:07.922Z,52.00
2023-03-06T19:09:35.835Z,52.10
2023-03-06T19:12:04.234Z,52.20
2023-03-06T19:14:32.429Z,52.20
2023-03-06T19:17:00.420Z,52.30
2023-03-06T19:19:29.535Z,52.30
2023-03-06T19:21:59.228Z,52.30
2023-03-06T19:24:28.579Z,52.30
2023-03-06T19:26:56.507Z,52.30
2023-03-06T19:29:24.436Z,52.30
2023-03-06T19:31:52.436Z,52.40
2023-03-06T19:34:21.098Z,52.30
2023-03-06T19:36:50.903Z,52.30
2023-03-06T19:39:19.232Z,52.40
2023-03-06T19:41:49.024Z,52.30
2023-03-06T19:44:17.490Z,52.30
2023-03-06T19:46:46.069Z,52.30
2023-03-06T19:49:17.911Z,52.30
2023-03-06T19:51:46.283Z,52.30
2023-03-06T19:54:14.661Z,52.30
2023-03-06T19:56:43.452Z,52.30
2023-03-06T19:59:13.007Z,52.20
2023-03-06T20:01:40.951Z,52.20
2023-03-06T20:04:09.082Z,52.30
2023-03-06T20:06:38.780Z,52.30
2023-03-06T20:09:08.876Z,52.30
2023-03-06T20:11:37.195Z,52.30
2023-03-06T20:14:06.903Z,52.30
2023-03-06T20:16:37.698Z,52.50
2023-03-06T20:19:06.768Z,52.40
2023-03-06T20:21:37.630Z,52.40
2023-03-06T20:24:06.629Z,52.50
2023-03-06T20:26:36.630Z,52.50
2023-03-06T20:29:05.280Z,52.50
2023-03-06T20:31:33.205Z,52.60
2023-03-06T20:34:03.229Z,52.50
2023-03-06T20:36:34.007Z,52.40
2023-03-06T20:39:03.135Z,52.40
2023-03-06T20:41:32.558Z,52.50
2023-03-06T20:44:02.705Z,52.30
2023-03-06T20:46:31.552Z,52.40
2023-03-06T20:48:59.797Z,52.30
2023-03-06T20:51:31.734Z,52.20
2023-03-06T20:54:01.997Z,52.10
2023-03-06T20:56:31.531Z,52.10
2023-03-06T20:58:59.640Z,52.00
2023-03-06T21:01:29.801Z,52.00
2023-03-06T21:03:58.826Z,52.00
2023-03-06T21:06:28.279Z,51.80
2023-03-06T21:08:58.849Z,51.90
2023-03-06T21:11:27.423Z,51.80
2023-03-06T21:13:56.283Z,51.80
2023-03-06T21:16:26.929Z,51.90
2023-03-06T21:18:56.433Z,51.90
2023-03-06T21:21:27.269Z,52.20
2023-03-06T21:23:55.716Z,51.70
2023-03-06T21:26:27.053Z,51.80
2023-03-06T21:28:56.907Z,51.70
2023-03-06T21:31:24.959Z,51.70
2023-03-06T21:33:53.162Z,51.70
2023-03-06T21:36:22.425Z,51.30
2023-03-06T21:38:52.605Z,51.40
2023-03-06T21:41:24.252Z,51.40
2023-03-06T21:43:56.837Z,51.50
2023-03-06T21:46:25.390Z,51.40
2023-03-06T21:48:53.292Z,51.40
2023-03-06T21:51:23.587Z,51.40
2023-03-06T21:53:52.836Z,51.40
2023-03-06T21:56:23.892Z,51.50
2023-03-06T21:58:52.190Z,51.60
2023-03-06T22:01:27.509Z,51.70
2023-03-06T22:03:55.650Z,52.30
2023-03-06T22:06:25.374Z,52.00
2023-03-06T22:08:54.969Z,51.90
2023-03-06T22:11:24.611Z,52.00
2023-03-06T22:13:53.955Z,52.10
2023-03-06T22:16:23.186Z,52.20
2023-03-06T22:18:52.564Z,52.30
2023-03-06T22:21:22.340Z,52.40
2023-03-06T22:23:51.285Z,52.40
2023-03-06T22:26:19.473Z,52.40
2023-03-06T22:28:47.607Z,52.50
2023-03-06T22:31:17.301Z,52.40
2023-03-06T22:33:46.597Z,52.40
2023-03-06T22:36:16.586Z,52.40
2023-03-06T22:38:47.388Z,52.50
2023-03-06T22:41:16.904Z,52.60
2023-03-06T22:43:45.010Z,52.60
2023-03-06T22:46:14.896Z,52.70
2023-03-06T22:48:43.252Z,52.70
2023-03-06T22:51:13.979Z,52.80
2023-03-06T22:53:42.723Z,52.80
2023-03-06T22:56:12.583Z,53.00
2023-03-06T22:58:40.948Z,52.80
2023-03-06T23:01:10.438Z,52.80
2023-03-06T23:03:40.586Z,53.00
2023-03-06T23:06:09.695Z,52.70
2023-03-06T23:08:39.423Z,52.90
2023-03-06T23:11:10.117Z,52.90
2023-03-06T23:13:57.460Z,53.00
2023-03-06T23:16:44.233Z,52.90
2023-03-06T23:19:30.920Z,53.00
2023-03-06T23:22:17.951Z,53.00
2023-03-06T23:25:06.656Z,53.00
2023-03-06T23:27:36.826Z,53.10
2023-03-06T23:30:05.652Z,53.50
2023-03-06T23:32:33.985Z,53.10
2023-03-06T23:35:02.329Z,53.10
2023-03-06T23:37:30.211Z,53.10
2023-03-06T23:39:58.688Z,53.20
2023-03-06T23:42:28.325Z,53.10
2023-03-06T23:44:56.193Z,53.10
2023-03-06T23:47:24.349Z,53.10
2023-03-06T23:49:52.195Z,53.20
2023-03-06T23:52:20.252Z,53.20
2023-03-06T23:54:50.038Z,53.30
2023-03-06T23:57:18.017Z,53.30
2023-03-06T23:59:47.530Z,53.30
